NCPY

Details ICAO NCPY (PYE)
Name Penrhyyn/Tongareva
Region Cook Islands
Timezone Unknown (UTC+0.0)
Plans Departing 0
Arriving 1
Stats Elevation 8 ft / 2 m (AMSL)
Location -9.015229° -158.031754°
Runways 1
Magnetic Variation 10.575° E
Sunrise 2017-12-13 16:08:41 UTC / 2017-12-13 16:08:41 Local
Sunset 2017-12-14 04:47:13 UTC / 2017-12-14 04:47:13 Local
Advertisement - Login to hide

Runways

ID Width Length Bearing (true) Bearing (mag) Surface Threshold Offset Overrun Length
14 272 ft / 83 m 7,408 ft / 2,258 m 151.70° 141.13° Gravel 0 ft / 0 m 0 ft / 0 m
32 272 ft / 83 m 7,408 ft / 2,258 m 331.70° 321.13° Gravel 0 ft / 0 m 0 ft / 0 m

Map

Weather


0- 5 10 15 20 25 30 35+ Temperature / ° C

Clouds and Precipitation
Forecast for 2017-12-13 18:00 UTC. Updated 2 hours ago

Ground ~20,000 ft ~40,000 ft Winds

METAR

NCPY 131700Z AUTO 05007KT //// ///// 27/23 Q1009

TAF

Not found
Warning: Do not use this data for real-world aviation or navigation. No guarantee of current accuracy is given.